sensor_id;sensor_type;location;lat;lon;timestamp;pressure;altitude;pressure_sealevel;temperature;humidity
69306;BME280;56427;51.580;4.656;2023-03-16T00:01:36;101684.19;;;5.16;100.00
69306;BME280;56427;51.580;4.656;2023-03-16T00:04:02;101683.34;;;5.16;100.00
69306;BME280;56427;51.580;4.656;2023-03-16T00:06:27;101684.81;;;5.22;100.00
69306;BME280;56427;51.580;4.656;2023-03-16T00:08:53;101683.94;;;5.21;100.00
69306;BME280;56427;51.580;4.656;2023-03-16T00:11:24;101672.28;;;5.14;100.00
69306;BME280;56427;51.580;4.656;2023-03-16T00:13:49;101670.81;;;5.27;100.00
69306;BME280;56427;51.580;4.656;2023-03-16T00:16:15;101674.78;;;5.15;100.00
69306;BME280;56427;51.580;4.656;2023-03-16T00:18:41;101670.31;;;5.19;100.00
69306;BME280;56427;51.580;4.656;2023-03-16T00:21:07;101673.03;;;5.16;100.00
69306;BME280;56427;51.580;4.656;2023-03-16T00:23:33;101670.72;;;5.29;100.00
69306;BME280;56427;51.580;4.656;2023-03-16T00:26:06;101668.81;;;5.15;100.00
69306;BME280;56427;51.580;4.656;2023-03-16T00:28:33;101674.59;;;5.20;100.00
69306;BME280;56427;51.580;4.656;2023-03-16T00:31:10;101668.75;;;5.16;100.00
69306;BME280;56427;51.580;4.656;2023-03-16T00:33:37;101663.09;;;5.27;100.00
69306;BME280;56427;51.580;4.656;2023-03-16T00:36:04;101665.03;;;5.22;100.00
69306;BME280;56427;51.580;4.656;2023-03-16T00:38:39;101662.94;;;5.30;100.00
69306;BME280;56427;51.580;4.656;2023-03-16T00:41:10;101670.22;;;5.40;100.00
69306;BME280;56427;51.580;4.656;2023-03-16T00:43:39;101665.78;;;5.24;100.00
69306;BME280;56427;51.580;4.656;2023-03-16T00:46:12;101661.31;;;5.10;100.00
69306;BME280;56427;51.580;4.656;2023-03-16T00:48:40;101650.41;;;5.23;100.00
69306;BME280;56427;51.580;4.656;2023-03-16T00:51:07;101647.38;;;5.14;100.00
69306;BME280;56427;51.580;4.656;2023-03-16T00:53:34;101648.78;;;5.22;100.00
69306;BME280;56427;51.580;4.656;2023-03-16T00:56:01;101654.97;;;5.18;100.00
69306;BME280;56427;51.580;4.656;2023-03-16T00:58:30;101645.66;;;5.15;100.00
69306;BME280;56427;51.580;4.656;2023-03-16T01:01:18;101641.34;;;5.15;100.00
69306;BME280;56427;51.580;4.656;2023-03-16T01:03:44;101639.44;;;5.19;100.00
69306;BME280;56427;51.580;4.656;2023-03-16T01:06:13;101628.31;;;5.19;100.00
69306;BME280;56427;51.580;4.656;2023-03-16T01:08:40;101623.47;;;5.12;100.00
69306;BME280;56427;51.580;4.656;2023-03-16T01:11:08;101618.78;;;5.21;100.00
69306;BME280;56427;51.580;4.656;2023-03-16T01:13:35;101618.25;;;5.14;100.00
69306;BME280;56427;51.580;4.656;2023-03-16T01:16:01;101608.94;;;5.11;100.00
69306;BME280;56427;51.580;4.656;2023-03-16T01:18:28;101600.91;;;5.18;100.00
69306;BME280;56427;51.580;4.656;2023-03-16T01:20:54;101605.09;;;5.20;100.00
69306;BME280;56427;51.580;4.656;2023-03-16T01:23:20;101594.66;;;5.23;100.00
69306;BME280;56427;51.580;4.656;2023-03-16T01:25:46;101598.88;;;5.24;100.00
69306;BME280;56427;51.580;4.656;2023-03-16T01:28:22;101602.06;;;5.12;100.00
69306;BME280;56427;51.580;4.656;2023-03-16T01:30:52;101607.28;;;5.10;100.00
69306;BME280;56427;51.580;4.656;2023-03-16T01:33:20;101612.44;;;5.10;100.00
69306;BME280;56427;51.580;4.656;2023-03-16T01:36:13;101615.06;;;5.09;100.00
69306;BME280;56427;51.580;4.656;2023-03-16T01:38:39;101603.94;;;5.08;100.00
69306;BME280;56427;51.580;4.656;2023-03-16T01:41:05;101609.53;;;4.99;100.00
69306;BME280;56427;51.580;4.656;2023-03-16T01:43:33;101608.44;;;5.03;100.00
69306;BME280;56427;51.580;4.656;2023-03-16T01:49:06;101599.03;;;5.04;100.00
69306;BME280;56427;51.580;4.656;2023-03-16T01:54:12;101591.59;;;4.97;100.00
69306;BME280;56427;51.580;4.656;2023-03-16T01:56:44;101588.81;;;5.02;100.00
69306;BME280;56427;51.580;4.656;2023-03-16T01:59:17;101585.47;;;5.00;100.00
69306;BME280;56427;51.580;4.656;2023-03-16T02:01:45;101580.75;;;4.91;100.00
69306;BME280;56427;51.580;4.656;2023-03-16T02:04:25;101584.16;;;4.91;100.00
69306;BME280;56427;51.580;4.656;2023-03-16T02:06:54;101580.34;;;4.81;100.00
69306;BME280;56427;51.580;4.656;2023-03-16T02:09:20;101583.31;;;4.91;100.00
69306;BME280;56427;51.580;4.656;2023-03-16T02:11:47;101575.47;;;4.94;100.00
69306;BME280;56427;51.580;4.656;2023-03-16T02:14:12;101563.03;;;4.85;100.00
69306;BME280;56427;51.580;4.656;2023-03-16T02:16:39;101566.53;;;4.84;100.00
69306;BME280;56427;51.580;4.656;2023-03-16T02:19:15;101552.41;;;4.73;100.00
69306;BME280;56427;51.580;4.656;2023-03-16T02:21:49;101558.28;;;4.77;100.00
69306;BME280;56427;51.580;4.656;2023-03-16T02:24:19;101561.13;;;4.71;100.00
69306;BME280;56427;51.580;4.656;2023-03-16T02:26:49;101556.72;;;4.73;100.00
69306;BME280;56427;51.580;4.656;2023-03-16T02:32:07;101552.88;;;4.64;100.00
69306;BME280;56427;51.580;4.656;2023-03-16T02:34:34;101547.34;;;4.72;100.00
69306;BME280;56427;51.580;4.656;2023-03-16T02:37:00;101544.84;;;4.70;100.00
69306;BME280;56427;51.580;4.656;2023-03-16T02:39:26;101556.94;;;4.68;100.00
69306;BME280;56427;51.580;4.656;2023-03-16T02:41:51;101541.59;;;4.67;100.00
69306;BME280;56427;51.580;4.656;2023-03-16T02:44:24;101535.75;;;4.82;100.00
69306;BME280;56427;51.580;4.656;2023-03-16T02:46:53;101535.41;;;4.71;100.00
69306;BME280;56427;51.580;4.656;2023-03-16T02:49:29;101534.97;;;4.80;100.00
69306;BME280;56427;51.580;4.656;2023-03-16T02:51:57;101534.81;;;4.83;100.00
69306;BME280;56427;51.580;4.656;2023-03-16T02:54:23;101542.84;;;4.77;100.00
69306;BME280;56427;51.580;4.656;2023-03-16T02:56:49;101533.66;;;4.71;100.00
69306;BME280;56427;51.580;4.656;2023-03-16T02:59:15;101528.09;;;4.81;100.00
69306;BME280;56427;51.580;4.656;2023-03-16T03:01:40;101527.03;;;4.85;100.00
69306;BME280;56427;51.580;4.656;2023-03-16T03:04:06;101538.25;;;4.84;100.00
69306;BME280;56427;51.580;4.656;2023-03-16T03:06:32;101526.41;;;4.79;100.00
69306;BME280;56427;51.580;4.656;2023-03-16T03:08:59;101523.63;;;4.84;100.00
69306;BME280;56427;51.580;4.656;2023-03-16T03:11:24;101527.88;;;4.85;100.00
69306;BME280;56427;51.580;4.656;2023-03-16T03:13:50;101515.78;;;4.87;100.00
69306;BME280;56427;51.580;4.656;2023-03-16T03:16:16;101515.09;;;4.84;100.00
69306;BME280;56427;51.580;4.656;2023-03-16T03:18:41;101514.38;;;4.80;100.00
69306;BME280;56427;51.580;4.656;2023-03-16T03:21:06;101513.78;;;4.75;100.00
69306;BME280;56427;51.580;4.656;2023-03-16T03:23:32;101523.84;;;4.79;100.00
69306;BME280;56427;51.580;4.656;2023-03-16T03:26:00;101511.34;;;4.72;100.00
69306;BME280;56427;51.580;4.656;2023-03-16T03:28:27;101516.88;;;4.82;100.00
69306;BME280;56427;51.580;4.656;2023-03-16T03:30:53;101500.84;;;4.76;100.00
69306;BME280;56427;51.580;4.656;2023-03-16T03:33:18;101505.91;;;4.78;100.00
69306;BME280;56427;51.580;4.656;2023-03-16T03:35:43;101500.84;;;4.76;100.00
69306;BME280;56427;51.580;4.656;2023-03-16T03:38:09;101497.56;;;4.92;100.00
69306;BME280;56427;51.580;4.656;2023-03-16T03:40:35;101496.09;;;4.86;100.00
69306;BME280;56427;51.580;4.656;2023-03-16T03:43:01;101489.06;;;4.90;100.00
69306;BME280;56427;51.580;4.656;2023-03-16T03:45:26;101487.97;;;4.76;100.00
69306;BME280;56427;51.580;4.656;2023-03-16T03:47:52;101487.16;;;4.76;100.00
69306;BME280;56427;51.580;4.656;2023-03-16T03:50:19;101486.56;;;4.71;100.00
69306;BME280;56427;51.580;4.656;2023-03-16T03:52:45;101486.88;;;4.82;100.00
69306;BME280;56427;51.580;4.656;2023-03-16T03:55:10;101485.47;;;4.75;100.00
69306;BME280;56427;51.580;4.656;2023-03-16T03:57:43;101487.25;;;4.92;100.00
69306;BME280;56427;51.580;4.656;2023-03-16T04:00:09;101487.22;;;4.74;100.00
69306;BME280;56427;51.580;4.656;2023-03-16T04:02:37;101481.13;;;4.77;100.00
69306;BME280;56427;51.580;4.656;2023-03-16T04:05:04;101473.69;;;4.71;100.00
69306;BME280;56427;51.580;4.656;2023-03-16T04:07:30;101481.28;;;4.74;100.00
69306;BME280;56427;51.580;4.656;2023-03-16T04:09:55;101469.75;;;4.81;100.00
69306;BME280;56427;51.580;4.656;2023-03-16T04:12:20;101473.22;;;4.80;100.00
69306;BME280;56427;51.580;4.656;2023-03-16T04:14:46;101469.63;;;4.84;100.00
69306;BME280;56427;51.580;4.656;2023-03-16T04:17:11;101471.19;;;4.87;100.00
69306;BME280;56427;51.580;4.656;2023-03-16T04:19:37;101469.97;;;4.76;100.00
69306;BME280;56427;51.580;4.656;2023-03-16T04:22:02;101468.25;;;4.77;100.00
69306;BME280;56427;51.580;4.656;2023-03-16T04:24:27;101460.16;;;4.85;100.00
69306;BME280;56427;51.580;4.656;2023-03-16T04:26:53;101456.75;;;4.84;100.00
69306;BME280;56427;51.580;4.656;2023-03-16T04:29:18;101462.00;;;5.00;100.00
69306;BME280;56427;51.580;4.656;2023-03-16T04:31:44;101456.84;;;4.83;100.00
69306;BME280;56427;51.580;4.656;2023-03-16T04:34:10;101452.66;;;4.80;100.00
69306;BME280;56427;51.580;4.656;2023-03-16T04:36:36;101458.44;;;4.85;100.00
69306;BME280;56427;51.580;4.656;2023-03-16T04:39:03;101448.28;;;5.00;100.00
69306;BME280;56427;51.580;4.656;2023-03-16T04:41:28;101446.75;;;4.78;100.00
69306;BME280;56427;51.580;4.656;2023-03-16T04:43:54;101443.22;;;4.81;100.00
69306;BME280;56427;51.580;4.656;2023-03-16T04:46:19;101442.22;;;4.83;100.00
69306;BME280;56427;51.580;4.656;2023-03-16T04:48:44;101446.28;;;5.22;100.00
69306;BME280;56427;51.580;4.656;2023-03-16T04:51:10;101439.13;;;4.94;100.00
69306;BME280;56427;51.580;4.656;2023-03-16T04:53:35;101439.72;;;4.82;100.00
69306;BME280;56427;51.580;4.656;2023-03-16T04:56:01;101443.53;;;4.74;100.00
69306;BME280;56427;51.580;4.656;2023-03-16T04:58:26;101442.31;;;4.82;100.00
69306;BME280;56427;51.580;4.656;2023-03-16T05:00:52;101434.22;;;4.89;100.00
69306;BME280;56427;51.580;4.656;2023-03-16T05:03:18;101432.72;;;4.85;100.00
69306;BME280;56427;51.580;4.656;2023-03-16T05:05:45;101441.47;;;4.98;100.00
69306;BME280;56427;51.580;4.656;2023-03-16T05:08:11;101437.09;;;4.83;100.00
69306;BME280;56427;51.580;4.656;2023-03-16T05:10:36;101435.38;;;4.84;100.00
69306;BME280;56427;51.580;4.656;2023-03-16T05:13:03;101421.06;;;4.78;100.00
69306;BME280;56427;51.580;4.656;2023-03-16T05:15:28;101432.16;;;4.78;100.00
69306;BME280;56427;51.580;4.656;2023-03-16T05:17:54;101417.66;;;4.77;100.00
69306;BME280;56427;51.580;4.656;2023-03-16T05:20:20;101420.81;;;4.83;100.00
69306;BME280;56427;51.580;4.656;2023-03-16T05:22:47;101415.59;;;4.84;100.00
69306;BME280;56427;51.580;4.656;2023-03-16T05:25:14;101414.53;;;4.88;100.00
69306;BME280;56427;51.580;4.656;2023-03-16T05:27:44;101409.88;;;4.79;100.00
69306;BME280;56427;51.580;4.656;2023-03-16T05:30:11;101403.41;;;4.70;100.00
69306;BME280;56427;51.580;4.656;2023-03-16T05:32:37;101412.28;;;4.82;100.00
69306;BME280;56427;51.580;4.656;2023-03-16T05:35:03;101406.16;;;4.67;100.00
69306;BME280;56427;51.580;4.656;2023-03-16T05:37:29;101410.47;;;4.67;100.00
69306;BME280;56427;51.580;4.656;2023-03-16T05:39:55;101407.00;;;4.68;100.00
69306;BME280;56427;51.580;4.656;2023-03-16T05:42:21;101400.03;;;4.70;100.00
69306;BME280;56427;51.580;4.656;2023-03-16T05:44:47;101404.13;;;4.74;100.00
69306;BME280;56427;51.580;4.656;2023-03-16T05:47:13;101404.28;;;4.71;100.00
69306;BME280;56427;51.580;4.656;2023-03-16T05:49:38;101402.38;;;4.74;100.00
69306;BME280;56427;51.580;4.656;2023-03-16T05:52:04;101408.56;;;4.88;100.00
69306;BME280;56427;51.580;4.656;2023-03-16T05:54:29;101403.53;;;4.69;100.00
69306;BME280;56427;51.580;4.656;2023-03-16T05:56:55;101406.91;;;4.69;100.00
69306;BME280;56427;51.580;4.656;2023-03-16T05:59:20;101406.25;;;4.66;100.00
69306;BME280;56427;51.580;4.656;2023-03-16T06:01:45;101407.50;;;4.57;100.00
69306;BME280;56427;51.580;4.656;2023-03-16T06:04:11;101397.00;;;4.61;100.00
69306;BME280;56427;51.580;4.656;2023-03-16T06:06:36;101399.72;;;4.76;100.00
69306;BME280;56427;51.580;4.656;2023-03-16T06:09:02;101396.00;;;4.82;100.00
69306;BME280;56427;51.580;4.656;2023-03-16T06:11:28;101400.03;;;4.70;100.00
69306;BME280;56427;51.580;4.656;2023-03-16T06:13:53;101397.38;;;4.71;100.00
69306;BME280;56427;51.580;4.656;2023-03-16T06:16:22;101388.16;;;4.85;100.00
69306;BME280;56427;51.580;4.656;2023-03-16T06:18:47;101390.63;;;4.86;100.00
69306;BME280;56427;51.580;4.656;2023-03-16T06:21:13;101393.34;;;4.83;100.00
69306;BME280;56427;51.580;4.656;2023-03-16T06:23:38;101400.19;;;4.84;100.00
69306;BME280;56427;51.580;4.656;2023-03-16T06:26:04;101387.47;;;4.81;100.00
69306;BME280;56427;51.580;4.656;2023-03-16T06:28:29;101395.72;;;4.88;100.00
69306;BME280;56427;51.580;4.656;2023-03-16T06:30:55;101389.75;;;4.87;100.00
69306;BME280;56427;51.580;4.656;2023-03-16T06:33:22;101380.63;;;5.15;100.00
69306;BME280;56427;51.580;4.656;2023-03-16T06:35:48;101385.06;;;5.11;100.00
69306;BME280;56427;51.580;4.656;2023-03-16T06:38:14;101378.59;;;5.04;100.00
69306;BME280;56427;51.580;4.656;2023-03-16T06:40:40;101378.44;;;5.07;100.00
69306;BME280;56427;51.580;4.656;2023-03-16T06:43:06;101358.84;;;5.05;100.00
69306;BME280;56427;51.580;4.656;2023-03-16T06:45:31;101371.31;;;5.12;100.00
69306;BME280;56427;51.580;4.656;2023-03-16T06:47:57;101366.31;;;5.09;100.00
69306;BME280;56427;51.580;4.656;2023-03-16T06:50:22;101358.84;;;5.05;100.00
69306;BME280;56427;51.580;4.656;2023-03-16T06:52:47;101364.50;;;5.11;100.00
69306;BME280;56427;51.580;4.656;2023-03-16T06:55:13;101359.19;;;5.14;100.00
69306;BME280;56427;51.580;4.656;2023-03-16T06:57:39;101362.97;;;5.25;100.00
69306;BME280;56427;51.580;4.656;2023-03-16T07:00:07;101349.31;;;5.23;100.00
69306;BME280;56427;51.580;4.656;2023-03-16T07:02:33;101352.16;;;5.34;100.00
69306;BME280;56427;51.580;4.656;2023-03-16T07:05:00;101350.59;;;5.31;100.00
69306;BME280;56427;51.580;4.656;2023-03-16T07:07:26;101345.97;;;5.38;100.00
69306;BME280;56427;51.580;4.656;2023-03-16T07:09:51;101346.78;;;5.39;100.00
69306;BME280;56427;51.580;4.656;2023-03-16T07:12:17;101345.72;;;5.43;100.00
69306;BME280;56427;51.580;4.656;2023-03-16T07:14:42;101344.78;;;5.44;100.00
69306;BME280;56427;51.580;4.656;2023-03-16T07:17:08;101360.75;;;5.50;100.00
69306;BME280;56427;51.580;4.656;2023-03-16T07:19:34;101350.63;;;5.63;100.00
69306;BME280;56427;51.580;4.656;2023-03-16T07:21:59;101346.56;;;5.59;100.00
69306;BME280;56427;51.580;4.656;2023-03-16T07:24:26;101354.09;;;5.62;100.00
69306;BME280;56427;51.580;4.656;2023-03-16T07:26:52;101350.06;;;5.74;100.00
69306;BME280;56427;51.580;4.656;2023-03-16T07:29:17;101351.44;;;5.80;100.00
69306;BME280;56427;51.580;4.656;2023-03-16T07:31:43;101356.59;;;5.96;100.00
69306;BME280;56427;51.580;4.656;2023-03-16T07:34:08;101354.09;;;5.94;100.00
69306;BME280;56427;51.580;4.656;2023-03-16T07:36:34;101362.53;;;5.98;100.00
69306;BME280;56427;51.580;4.656;2023-03-16T07:38:59;101361.00;;;6.10;100.00
69306;BME280;56427;51.580;4.656;2023-03-16T07:41:25;101359.16;;;6.12;100.00
69306;BME280;56427;51.580;4.656;2023-03-16T07:43:51;101351.44;;;6.12;100.00
69306;BME280;56427;51.580;4.656;2023-03-16T07:46:17;101365.81;;;6.16;100.00
69306;BME280;56427;51.580;4.656;2023-03-16T07:48:43;101357.59;;;6.25;100.00
69306;BME280;56427;51.580;4.656;2023-03-16T07:51:10;101357.59;;;6.25;100.00
69306;BME280;56427;51.580;4.656;2023-03-16T07:53:36;101366.38;;;6.37;100.00
69306;BME280;56427;51.580;4.656;2023-03-16T07:56:02;101366.38;;;6.37;100.00
69306;BME280;56427;51.580;4.656;2023-03-16T07:58:28;101359.31;;;6.24;100.00
69306;BME280;56427;51.580;4.656;2023-03-16T08:00:58;101357.03;;;6.34;100.00
69306;BME280;56427;51.580;4.656;2023-03-16T08:03:25;101350.97;;;6.35;100.00
69306;BME280;56427;51.580;4.656;2023-03-16T08:05:51;101357.13;;;6.33;100.00
69306;BME280;56427;51.580;4.656;2023-03-16T08:08:17;101356.13;;;6.35;100.00
69306;BME280;56427;51.580;4.656;2023-03-16T08:10:43;101364.00;;;6.48;100.00
69306;BME280;56427;51.580;4.656;2023-03-16T08:13:08;101357.66;;;6.54;100.00
69306;BME280;56427;51.580;4.656;2023-03-16T08:15:33;101358.47;;;6.54;100.00
69306;BME280;56427;51.580;4.656;2023-03-16T08:18:00;101362.34;;;6.47;100.00
69306;BME280;56427;51.580;4.656;2023-03-16T08:20:27;101349.34;;;6.49;100.00
69306;BME280;56427;51.580;4.656;2023-03-16T08:22:53;101360.69;;;6.60;100.00
69306;BME280;56427;51.580;4.656;2023-03-16T08:25:19;101367.91;;;6.70;100.00
69306;BME280;56427;51.580;4.656;2023-03-16T08:27:45;101359.91;;;6.74;100.00
69306;BME280;56427;51.580;4.656;2023-03-16T08:30:11;101358.66;;;6.96;100.00
69306;BME280;56427;51.580;4.656;2023-03-16T08:32:38;101355.97;;;6.97;100.00
69306;BME280;56427;51.580;4.656;2023-03-16T08:35:05;101339.09;;;7.06;100.00
69306;BME280;56427;51.580;4.656;2023-03-16T08:37:31;101350.38;;;7.61;100.00
69306;BME280;56427;51.580;4.656;2023-03-16T08:39:56;101348.19;;;7.82;100.00
69306;BME280;56427;51.580;4.656;2023-03-16T08:42:25;101336.84;;;7.85;100.00
69306;BME280;56427;51.580;4.656;2023-03-16T08:44:50;101342.19;;;8.09;100.00
69306;BME280;56427;51.580;4.656;2023-03-16T08:47:22;101349.06;;;8.23;100.00
69306;BME280;56427;51.580;4.656;2023-03-16T08:49:48;101330.84;;;8.77;100.00
69306;BME280;56427;51.580;4.656;2023-03-16T08:52:15;101333.63;;;8.61;100.00
69306;BME280;56427;51.580;4.656;2023-03-16T08:54:41;101353.59;;;8.19;100.00
69306;BME280;56427;51.580;4.656;2023-03-16T08:57:08;101351.03;;;8.32;100.00
69306;BME280;56427;51.580;4.656;2023-03-16T08:59:34;101337.53;;;9.18;100.00
69306;BME280;56427;51.580;4.656;2023-03-16T09:02:00;101335.22;;;10.12;100.00
69306;BME280;56427;51.580;4.656;2023-03-16T09:04:26;101346.59;;;9.50;100.00
69306;BME280;56427;51.580;4.656;2023-03-16T09:06:52;101336.22;;;9.00;100.00
69306;BME280;56427;51.580;4.656;2023-03-16T09:09:18;101331.81;;;8.36;100.00
69306;BME280;56427;51.580;4.656;2023-03-16T09:11:43;101327.63;;;8.74;100.00
69306;BME280;56427;51.580;4.656;2023-03-16T09:14:09;101328.78;;;9.32;100.00
69306;BME280;56427;51.580;4.656;2023-03-16T09:16:36;101318.28;;;9.47;100.00
69306;BME280;56427;51.580;4.656;2023-03-16T09:19:02;101315.44;;;9.26;100.00
69306;BME280;56427;51.580;4.656;2023-03-16T09:21:28;101318.22;;;9.35;100.00
69306;BME280;56427;51.580;4.656;2023-03-16T09:23:53;101318.16;;;9.85;100.00
69306;BME280;56427;51.580;4.656;2023-03-16T09:26:20;101316.38;;;10.57;100.00
69306;BME280;56427;51.580;4.656;2023-03-16T09:28:45;101306.69;;;10.47;100.00
69306;BME280;56427;51.580;4.656;2023-03-16T09:31:18;101311.91;;;10.59;97.99
69306;BME280;56427;51.580;4.656;2023-03-16T09:33:44;101312.13;;;10.56;97.79
69306;BME280;56427;51.580;4.656;2023-03-16T09:36:11;101315.25;;;10.01;97.77
69306;BME280;56427;51.580;4.656;2023-03-16T09:38:38;101310.44;;;10.08;98.12
69306;BME280;56427;51.580;4.656;2023-03-16T09:41:14;101301.97;;;9.82;99.21
69306;BME280;56427;51.580;4.656;2023-03-16T09:44:03;101308.66;;;9.73;100.00
69306;BME280;56427;51.580;4.656;2023-03-16T09:46:36;101309.81;;;9.93;100.00
69306;BME280;56427;51.580;4.656;2023-03-16T09:49:11;101307.03;;;10.07;100.00
69306;BME280;56427;51.580;4.656;2023-03-16T09:54:36;101310.38;;;10.56;97.99
69306;BME280;56427;51.580;4.656;2023-03-16T09:57:04;101302.03;;;10.28;100.00
69306;BME280;56427;51.580;4.656;2023-03-16T09:59:38;101305.66;;;10.61;97.35
69306;BME280;56427;51.580;4.656;2023-03-16T10:07:49;101298.13;;;10.70;93.67
69306;BME280;56427;51.580;4.656;2023-03-16T10:10:34;101304.59;;;10.53;94.49
69306;BME280;56427;51.580;4.656;2023-03-16T10:13:04;101311.00;;;10.94;94.69
69306;BME280;56427;51.580;4.656;2023-03-16T10:15:37;101302.94;;;10.97;92.23
69306;BME280;56427;51.580;4.656;2023-03-16T10:18:14;101309.09;;;10.84;91.33
69306;BME280;56427;51.580;4.656;2023-03-16T10:20:41;101298.13;;;11.58;91.45
69306;BME280;56427;51.580;4.656;2023-03-16T10:23:16;101296.88;;;11.74;86.63
69306;BME280;56427;51.580;4.656;2023-03-16T10:25:47;101290.06;;;12.26;86.19
69306;BME280;56427;51.580;4.656;2023-03-16T10:28:16;101291.91;;;11.82;85.69
69306;BME280;56427;51.580;4.656;2023-03-16T10:30:43;101291.84;;;12.05;83.97
69306;BME280;56427;51.580;4.656;2023-03-16T10:33:17;101288.47;;;11.38;82.06
69306;BME280;56427;51.580;4.656;2023-03-16T10:41:29;101269.16;;;11.95;81.22
69306;BME280;56427;51.580;4.656;2023-03-16T10:44:22;101258.66;;;12.18;78.79
69306;BME280;56427;51.580;4.656;2023-03-16T10:46:57;101262.59;;;11.80;79.83
69306;BME280;56427;51.580;4.656;2023-03-16T10:49:28;101252.44;;;12.09;78.21
69306;BME280;56427;51.580;4.656;2023-03-16T10:52:05;101245.41;;;11.89;77.73
69306;BME280;56427;51.580;4.656;2023-03-16T10:54:35;101250.59;;;12.21;75.79
69306;BME280;56427;51.580;4.656;2023-03-16T10:59:49;101247.84;;;12.23;75.77
69306;BME280;56427;51.580;4.656;2023-03-16T11:02:18;101228.97;;;12.00;75.65
69306;BME280;56427;51.580;4.656;2023-03-16T11:04:45;101237.38;;;12.13;76.42
69306;BME280;56427;51.580;4.656;2023-03-16T11:07:16;101225.06;;;12.15;75.15
69306;BME280;56427;51.580;4.656;2023-03-16T11:09:43;101238.63;;;12.19;75.17
69306;BME280;56427;51.580;4.656;2023-03-16T11:12:26;101227.22;;;12.10;72.91
69306;BME280;56427;51.580;4.656;2023-03-16T11:15:01;101229.25;;;12.27;72.75
69306;BME280;56427;51.580;4.656;2023-03-16T11:17:38;101226.34;;;12.21;72.56
69306;BME280;56427;51.580;4.656;2023-03-16T11:20:16;101217.47;;;12.02;71.00
69306;BME280;56427;51.580;4.656;2023-03-16T11:22:44;101214.41;;;12.18;71.91
69306;BME280;56427;51.580;4.656;2023-03-16T11:25:30;101216.88;;;12.20;71.63
69306;BME280;56427;51.580;4.656;2023-03-16T11:28:23;101214.16;;;12.52;71.55
69306;BME280;56427;51.580;4.656;2023-03-16T11:31:07;101206.34;;;12.21;71.46
69306;BME280;56427;51.580;4.656;2023-03-16T11:33:35;101206.53;;;12.08;70.24
69306;BME280;56427;51.580;4.656;2023-03-16T11:36:45;101199.22;;;11.92;70.61
69306;BME280;56427;51.580;4.656;2023-03-16T11:42:35;101189.97;;;12.71;67.57
69306;BME280;56427;51.580;4.656;2023-03-16T11:44:57;101184.38;;;12.85;65.37
69306;BME280;56427;51.580;4.656;2023-03-16T11:50:12;101197.75;;;13.31;65.30
69306;BME280;56427;51.580;4.656;2023-03-16T11:55:38;101185.34;;;12.94;56.38
69306;BME280;56427;51.580;4.656;2023-03-16T12:07:39;101173.34;;;13.22;59.07
69306;BME280;56427;51.580;4.656;2023-03-16T12:13:12;101164.97;;;13.38;58.24
69306;BME280;56427;51.580;4.656;2023-03-16T12:15:54;101154.66;;;13.66;58.62
69306;BME280;56427;51.580;4.656;2023-03-16T12:18:29;101155.78;;;13.15;58.02
69306;BME280;56427;51.580;4.656;2023-03-16T12:21:00;101151.78;;;13.30;57.61
69306;BME280;56427;51.580;4.656;2023-03-16T12:26:13;101143.97;;;14.16;57.65
69306;BME280;56427;51.580;4.656;2023-03-16T12:28:40;101133.03;;;14.03;57.13
69306;BME280;56427;51.580;4.656;2023-03-16T12:31:13;101112.44;;;14.00;56.67
69306;BME280;56427;51.580;4.656;2023-03-16T12:34:00;101130.44;;;14.31;54.98
69306;BME280;56427;51.580;4.656;2023-03-16T12:39:34;101110.25;;;13.95;55.48
69306;BME280;56427;51.580;4.656;2023-03-16T12:44:46;101107.56;;;13.77;54.01
69306;BME280;56427;51.580;4.656;2023-03-16T12:47:32;101110.47;;;13.65;54.16
69306;BME280;56427;51.580;4.656;2023-03-16T12:50:08;101107.88;;;14.02;53.39
69306;BME280;56427;51.580;4.656;2023-03-16T12:52:43;101099.00;;;13.95;53.50
69306;BME280;56427;51.580;4.656;2023-03-16T12:55:18;101096.28;;;13.87;53.38
69306;BME280;56427;51.580;4.656;2023-03-16T12:57:44;101099.53;;;14.26;54.65
69306;BME280;56427;51.580;4.656;2023-03-16T13:00:13;101100.25;;;14.18;53.51
69306;BME280;56427;51.580;4.656;2023-03-16T13:02:54;101078.31;;;14.39;52.08
69306;BME280;56427;51.580;4.656;2023-03-16T13:05:33;101084.34;;;14.40;52.59
69306;BME280;56427;51.580;4.656;2023-03-16T13:08:25;101080.59;;;14.42;51.56
69306;BME280;56427;51.580;4.656;2023-03-16T13:11:18;101083.63;;;13.92;51.30
69306;BME280;56427;51.580;4.656;2023-03-16T13:16:28;101066.88;;;14.40;49.85
69306;BME280;56427;51.580;4.656;2023-03-16T13:18:54;101056.75;;;14.55;50.67
69306;BME280;56427;51.580;4.656;2023-03-16T13:21:33;101057.19;;;14.50;51.18
69306;BME280;56427;51.580;4.656;2023-03-16T13:26:49;101046.03;;;14.76;51.40
69306;BME280;56427;51.580;4.656;2023-03-16T13:31:50;101047.41;;;14.34;49.20
69306;BME280;56427;51.580;4.656;2023-03-16T13:34:30;101053.72;;;14.78;49.05
69306;BME280;56427;51.580;4.656;2023-03-16T13:36:57;101043.13;;;14.79;49.71
69306;BME280;56427;51.580;4.656;2023-03-16T13:39:25;101043.81;;;14.63;49.22
69306;BME280;56427;51.580;4.656;2023-03-16T13:44:22;101031.34;;;14.75;50.08
69306;BME280;56427;51.580;4.656;2023-03-16T13:46:48;101034.09;;;14.56;48.73
69306;BME280;56427;51.580;4.656;2023-03-16T13:49:15;101031.38;;;15.01;50.51
69306;BME280;56427;51.580;4.656;2023-03-16T13:51:40;101020.47;;;15.06;49.98
69306;BME280;56427;51.580;4.656;2023-03-16T13:54:20;101023.47;;;14.93;48.14
69306;BME280;56427;51.580;4.656;2023-03-16T13:56:48;101020.59;;;14.78;47.98
69306;BME280;56427;51.580;4.656;2023-03-16T13:59:14;101023.91;;;15.06;47.62
69306;BME280;56427;51.580;4.656;2023-03-16T14:01:43;101028.53;;;14.59;46.29
69306;BME280;56427;51.580;4.656;2023-03-16T14:04:11;101008.63;;;14.58;46.94